Time;durP1;ratioP1;P1;durP2;ratioP2;P2;SDS_P1;SDS_P2;PMS_P1;PMS_P2;Temp;Humidity;BMP_temperature;BMP_pressure;BME280_temperature;BME280_humidity;BME280_pressure;Samples;Min_cycle;Max_cycle;Signal;HPM_P1;HPM_P2
2023/12/15 00:00:16;;;;;;;3.47;1.88;;;7.40;99.90;;;;;;5095518;28;20030;-87
2023/12/15 00:02:42;;;;;;;3.97;1.92;;;7.40;99.90;;;;;;5096304;28;20084;-85
2023/12/15 00:05:08;;;;;;;3.83;1.80;;;7.40;99.90;;;;;;5094735;28;20065;-86
2023/12/15 00:07:33;;;;;;;3.20;2.10;;;7.40;99.90;;;;;;5095531;28;20414;-85
2023/12/15 00:09:59;;;;;;;2.38;1.90;;;7.40;99.90;;;;;;5095045;28;20026;-86
2023/12/15 00:12:24;;;;;;;3.25;2.40;;;7.40;99.90;;;;;;5095517;28;20047;-85
2023/12/15 00:14:50;;;;;;;5.55;1.90;;;7.30;99.90;;;;;;5099359;28;20118;-86
2023/12/15 00:17:16;;;;;;;2.28;1.60;;;7.40;99.90;;;;;;5098508;28;20472;-86
2023/12/15 00:19:41;;;;;;;3.22;2.05;;;7.40;99.90;;;;;;5098718;28;20049;-85
2023/12/15 00:22:07;;;;;;;2.95;1.83;;;7.40;99.90;;;;;;5116654;28;20027;-85
2023/12/15 00:24:32;;;;;;;6.00;1.95;;;7.40;99.90;;;;;;5098701;28;20130;-86
2023/12/15 00:26:58;;;;;;;3.63;2.35;;;7.30;99.90;;;;;;5097230;28;20023;-86
2023/12/15 00:29:25;;;;;;;3.80;1.70;;;7.40;99.90;;;;;;5098535;28;20026;-86
2023/12/15 00:31:51;;;;;;;3.75;2.00;;;7.40;99.90;;;;;;5098940;28;20019;-86
2023/12/15 00:34:16;;;;;;;2.95;1.80;;;7.30;99.90;;;;;;5116566;28;20089;-86
2023/12/15 00:36:42;;;;;;;3.85;2.15;;;7.30;99.90;;;;;;5099075;28;20110;-85
2023/12/15 00:39:07;;;;;;;2.78;1.63;;;7.30;99.90;;;;;;5099757;28;20058;-85
2023/12/15 00:41:33;;;;;;;5.00;1.77;;;7.30;99.90;;;;;;5098195;28;20047;-86
2023/12/15 00:43:59;;;;;;;4.25;1.95;;;7.20;99.90;;;;;;5098812;28;20039;-86
2023/12/15 00:46:24;;;;;;;3.45;2.05;;;7.20;99.90;;;;;;5098193;28;20035;-86
2023/12/15 00:48:50;;;;;;;3.13;1.83;;;7.20;99.90;;;;;;5098791;28;20019;-86
2023/12/15 00:51:15;;;;;;;4.07;1.73;;;7.20;99.90;;;;;;5098434;28;20088;-86
2023/12/15 00:53:41;;;;;;;2.67;1.88;;;7.20;99.90;;;;;;5098963;28;20469;-86
2023/12/15 00:56:09;;;;;;;5.00;2.10;;;7.20;99.90;;;;;;5116797;28;20116;-85
2023/12/15 00:58:35;;;;;;;4.15;1.65;;;7.30;99.90;;;;;;5098312;28;20415;-85
2023/12/15 01:01:00;;;;;;;3.97;1.95;;;7.20;99.90;;;;;;5099014;28;20020;-85
2023/12/15 01:03:27;;;;;;;2.47;1.60;;;7.20;99.90;;;;;;5098264;28;20041;-85
2023/12/15 01:05:53;;;;;;;5.53;1.90;;;7.30;99.90;;;;;;5098736;28;20024;-85
2023/12/15 01:08:18;;;;;;;4.72;2.38;;;7.20;99.90;;;;;;5116035;28;20026;-86
2023/12/15 01:10:44;;;;;;;4.50;2.30;;;7.30;99.90;;;;;;5098509;28;20027;-85
2023/12/15 01:13:09;;;;;;;3.80;2.20;;;7.20;99.90;;;;;;5098364;28;20035;-85
2023/12/15 01:15:35;;;;;;;3.20;1.92;;;7.20;99.90;;;;;;5097984;28;20031;-85
2023/12/15 01:18:01;;;;;;;3.40;2.10;;;7.20;99.90;;;;;;5116376;28;20028;-85
2023/12/15 01:20:26;;;;;;;6.85;3.42;;;7.30;99.90;;;;;;5097904;28;20019;-85
2023/12/15 01:22:52;;;;;;;3.78;2.10;;;7.20;99.90;;;;;;5098506;28;20468;-85
2023/12/15 01:25:17;;;;;;;4.05;2.13;;;7.20;99.90;;;;;;5096901;28;20107;-85
2023/12/15 01:27:43;;;;;;;5.63;2.30;;;7.20;99.90;;;;;;5098119;28;20034;-86
2023/12/15 01:30:09;;;;;;;5.25;2.60;;;7.10;99.90;;;;;;5098004;28;20023;-86
2023/12/15 01:32:34;;;;;;;3.78;2.03;;;7.10;99.90;;;;;;5097522;28;20480;-86
2023/12/15 01:35:00;;;;;;;4.40;2.35;;;7.10;99.90;;;;;;5097941;28;20016;-85
2023/12/15 01:37:25;;;;;;;3.70;2.40;;;7.10;99.90;;;;;;5097576;28;20024;-86
2023/12/15 01:39:51;;;;;;;4.25;2.17;;;7.10;99.90;;;;;;5097463;28;20040;-85
2023/12/15 01:42:18;;;;;;;3.80;1.90;;;7.10;99.90;;;;;;5097331;28;20028;-86
2023/12/15 01:44:43;;;;;;;2.63;2.20;;;7.10;99.90;;;;;;5116000;28;20102;-86
2023/12/15 01:47:12;;;;;;;4.05;2.40;;;7.10;99.90;;;;;;5097877;28;20055;-85
2023/12/15 01:49:38;;;;;;;3.83;2.10;;;7.10;99.90;;;;;;5097075;28;20024;-85
2023/12/15 01:52:05;;;;;;;3.25;2.25;;;7.10;99.90;;;;;;5097581;28;20031;-86
2023/12/15 01:54:30;;;;;;;4.70;2.50;;;7.10;99.90;;;;;;5097291;28;20023;-85
2023/12/15 01:56:56;;;;;;;6.97;2.83;;;7.00;99.90;;;;;;5097377;28;20464;-85
2023/12/15 01:59:21;;;;;;;5.22;2.20;;;7.10;99.90;;;;;;5115201;28;20068;-85
2023/12/15 02:01:47;;;;;;;5.07;2.63;;;7.10;99.90;;;;;;5097552;28;20020;-85
2023/12/15 02:04:12;;;;;;;5.15;2.83;;;7.10;99.90;;;;;;5097435;28;20462;-86
2023/12/15 02:06:38;;;;;;;4.90;2.20;;;7.10;99.90;;;;;;5096836;28;20118;-85
2023/12/15 02:09:04;;;;;;;7.72;3.47;;;7.10;99.90;;;;;;5097556;28;20488;-85
2023/12/15 02:11:30;;;;;;;7.25;3.38;;;7.00;99.90;;;;;;5115098;28;20107;-86
2023/12/15 02:13:55;;;;;;;8.43;3.28;;;7.00;99.90;;;;;;5115391;28;20035;-85
2023/12/15 02:16:21;;;;;;;8.63;3.65;;;7.00;99.90;;;;;;5114872;28;20077;-86
2023/12/15 02:18:46;;;;;;;5.43;2.80;;;7.00;99.90;;;;;;5115205;28;20479;-86
2023/12/15 02:21:12;;;;;;;5.13;2.03;;;7.00;99.90;;;;;;5097069;28;20068;-85
2023/12/15 02:23:38;;;;;;;5.53;3.03;;;7.00;99.90;;;;;;5096503;28;20040;-85
2023/12/15 02:26:04;;;;;;;3.92;2.20;;;7.00;99.90;;;;;;5115124;28;20452;-85
2023/12/15 02:28:29;;;;;;;6.28;2.40;;;7.00;99.90;;;;;;5114498;28;20027;-85
2023/12/15 02:30:55;;;;;;;5.07;2.85;;;7.00;99.90;;;;;;5115189;28;20407;-85
2023/12/15 02:33:20;;;;;;;4.82;2.83;;;7.00;99.90;;;;;;5096304;28;20024;-87
2023/12/15 02:35:47;;;;;;;4.88;2.58;;;7.00;99.90;;;;;;5096403;28;20028;-85
2023/12/15 02:38:18;;;;;;;5.70;2.78;;;7.00;99.90;;;;;;5114552;28;20553;-85
2023/12/15 02:40:44;;;;;;;7.35;3.30;;;7.00;99.90;;;;;;5096019;28;20078;-85
2023/12/15 02:43:10;;;;;;;4.22;2.78;;;7.00;99.90;;;;;;5096724;28;20127;-86
2023/12/15 02:45:37;;;;;;;7.38;3.28;;;7.00;99.90;;;;;;5114158;28;20039;-86
2023/12/15 02:48:03;;;;;;;8.43;3.08;;;7.00;99.90;;;;;;5096506;28;20059;-85
2023/12/15 02:50:29;;;;;;;6.07;3.20;;;7.00;99.90;;;;;;5096212;28;20120;-85
2023/12/15 02:52:54;;;;;;;3.95;2.67;;;7.00;99.90;;;;;;5096711;28;20515;-86
2023/12/15 02:55:20;;;;;;;6.93;3.35;;;7.00;99.90;;;;;;5114763;28;20065;-86
2023/12/15 02:57:45;;;;;;;8.68;3.78;;;7.00;99.90;;;;;;5114273;28;20047;-87
2023/12/15 03:00:12;;;;;;;7.22;3.45;;;7.00;99.90;;;;;;5096703;28;20020;-86
2023/12/15 03:02:39;;;;;;;6.75;3.42;;;7.00;99.90;;;;;;5096048;28;20508;-86
2023/12/15 03:05:05;;;;;;;6.93;3.38;;;7.00;99.90;;;;;;5096309;28;20114;-86
2023/12/15 03:07:31;;;;;;;14.98;4.00;;;7.00;99.90;;;;;;5096022;28;20019;-86
2023/12/15 03:09:57;;;;;;;7.28;3.75;;;6.90;99.90;;;;;;5114563;28;20037;-86
2023/12/15 03:12:22;;;;;;;5.97;3.53;;;6.90;99.90;;;;;;5113983;28;20023;-87
2023/12/15 03:14:48;;;;;;;6.97;3.60;;;6.90;99.90;;;;;;5096697;28;20027;-86
2023/12/15 03:17:16;;;;;;;6.10;3.70;;;6.90;99.90;;;;;;5096785;28;20415;-86
2023/12/15 03:19:42;;;;;;;7.13;3.72;;;6.90;99.90;;;;;;5095985;28;20020;-86
2023/12/15 03:22:07;;;;;;;9.57;4.13;;;6.90;99.90;;;;;;5114407;28;20027;-87
2023/12/15 03:24:33;;;;;;;7.03;3.85;;;6.90;99.90;;;;;;5113763;28;20028;-87
2023/12/15 03:26:59;;;;;;;8.13;3.83;;;6.90;99.90;;;;;;5096111;28;20066;-86
2023/12/15 03:29:24;;;;;;;8.52;3.92;;;6.90;99.90;;;;;;5095995;28;20023;-87
2023/12/15 03:31:50;;;;;;;6.78;3.65;;;6.90;99.90;;;;;;5096463;28;20472;-86
2023/12/15 03:34:15;;;;;;;6.53;3.33;;;6.80;99.90;;;;;;5096131;28;20126;-86
2023/12/15 03:36:41;;;;;;;5.60;3.60;;;6.80;99.90;;;;;;5096047;28;20020;-86
2023/12/15 03:39:07;;;;;;;5.78;3.17;;;6.70;99.90;;;;;;5096483;28;20028;-86
2023/12/15 03:41:33;;;;;;;7.35;3.70;;;6.70;99.90;;;;;;5095253;28;20097;-86
2023/12/15 03:43:59;;;;;;;8.80;3.72;;;6.70;99.90;;;;;;5095881;28;20040;-86
2023/12/15 03:46:25;;;;;;;6.80;3.90;;;6.70;99.90;;;;;;5113590;28;20384;-87
2023/12/15 03:48:50;;;;;;;5.78;3.60;;;6.60;99.90;;;;;;5099430;28;20035;-86
2023/12/15 03:51:16;;;;;;;6.78;3.88;;;6.60;99.90;;;;;;5118020;28;20019;-86
2023/12/15 03:53:41;;;;;;;6.72;3.67;;;6.60;99.90;;;;;;5099504;28;20039;-86
2023/12/15 03:56:08;;;;;;;9.02;3.90;;;6.60;99.90;;;;;;5117903;28;20024;-86
2023/12/15 03:58:34;;;;;;;5.97;3.40;;;6.60;99.90;;;;;;5099450;28;20023;-87
2023/12/15 04:00:59;;;;;;;5.65;3.50;;;6.60;99.90;;;;;;5100215;28;20081;-86
2023/12/15 04:03:25;;;;;;;8.02;3.60;;;6.60;99.90;;;;;;5117090;28;20101;-87
2023/12/15 04:05:50;;;;;;;6.55;3.72;;;6.60;99.90;;;;;;5099759;28;20483;-87
2023/12/15 04:08:16;;;;;;;7.57;3.80;;;6.60;99.90;;;;;;5099600;28;20027;-86
2023/12/15 04:10:42;;;;;;;7.55;3.58;;;6.50;99.90;;;;;;5099264;28;20031;-87
2023/12/15 04:13:07;;;;;;;7.60;3.40;;;6.50;99.90;;;;;;5099699;28;20035;-86
2023/12/15 04:15:33;;;;;;;6.20;3.47;;;6.50;99.90;;;;;;5099212;28;20168;-86
2023/12/15 04:18:04;;;;;;;6.78;3.47;;;6.40;99.90;;;;;;5099662;28;20384;-87
2023/12/15 04:20:29;;;;;;;8.32;3.40;;;6.40;99.90;;;;;;5099110;28;20377;-87
2023/12/15 04:22:55;;;;;;;12.25;5.05;;;6.40;99.90;;;;;;5099424;28;20036;-86
2023/12/15 04:25:21;;;;;;;6.20;3.47;;;6.40;99.90;;;;;;5099604;28;20114;-87
2023/12/15 04:27:46;;;;;;;7.00;3.75;;;6.30;99.90;;;;;;5099073;28;20558;-87
2023/12/15 04:30:12;;;;;;;10.13;3.53;;;6.30;99.90;;;;;;5099435;28;20034;-86
2023/12/15 04:32:38;;;;;;;8.57;3.85;;;6.30;99.90;;;;;;5098673;28;20020;-86
2023/12/15 04:35:04;;;;;;;7.43;4.30;;;6.30;99.90;;;;;;5099315;28;20023;-86
2023/12/15 04:37:29;;;;;;;8.23;4.13;;;6.40;99.90;;;;;;5098637;28;20081;-86
2023/12/15 04:39:55;;;;;;;8.07;4.50;;;6.40;99.90;;;;;;5098546;28;20055;-86
2023/12/15 04:42:20;;;;;;;10.07;3.87;;;6.40;99.90;;;;;;5099008;28;20047;-85
2023/12/15 04:44:46;;;;;;;9.88;4.85;;;6.40;99.90;;;;;;5098729;28;20026;-86
2023/12/15 04:47:11;;;;;;;10.35;4.80;;;6.50;99.90;;;;;;5117278;28;20027;-86
2023/12/15 04:49:38;;;;;;;6.07;3.78;;;6.40;99.90;;;;;;5098499;28;20027;-86
2023/12/15 04:52:04;;;;;;;8.83;4.50;;;6.50;99.90;;;;;;5116936;28;20019;-85
2023/12/15 04:54:30;;;;;;;8.55;3.92;;;6.40;99.90;;;;;;5098359;28;20032;-87
2023/12/15 04:56:55;;;;;;;11.27;4.90;;;6.50;99.90;;;;;;5116966;28;20031;-86
2023/12/15 04:59:21;;;;;;;10.40;4.53;;;6.50;99.90;;;;;;5097624;28;20525;-85
2023/12/15 05:01:46;;;;;;;11.00;4.70;;;6.50;99.90;;;;;;5097945;28;20058;-86
2023/12/15 05:04:12;;;;;;;9.15;4.88;;;6.50;99.90;;;;;;5098734;28;20032;-86
2023/12/15 05:06:37;;;;;;;11.27;5.20;;;6.50;99.90;;;;;;5098202;28;20050;-86
2023/12/15 05:09:08;;;;;;;9.02;4.80;;;6.50;99.90;;;;;;5098688;28;20054;-86
2023/12/15 05:11:35;;;;;;;9.40;4.93;;;6.50;99.90;;;;;;5116269;28;20028;-86
2023/12/15 05:14:01;;;;;;;10.02;4.90;;;6.50;99.90;;;;;;5098366;28;20357;-86
2023/12/15 05:16:27;;;;;;;9.30;4.60;;;6.50;99.90;;;;;;5098271;28;20164;-86
2023/12/15 05:18:53;;;;;;;10.95;4.75;;;6.60;99.90;;;;;;5097790;28;20051;-87
2023/12/15 05:21:18;;;;;;;11.07;5.30;;;6.60;99.90;;;;;;5116421;28;20452;-86
2023/12/15 05:23:44;;;;;;;9.60;5.10;;;6.60;99.90;;;;;;5115746;28;20055;-86
2023/12/15 05:26:11;;;;;;;11.43;5.38;;;6.60;99.90;;;;;;5116239;28;20027;-86
2023/12/15 05:28:37;;;;;;;13.23;5.47;;;6.60;99.90;;;;;;5115666;28;20102;-87
2023/12/15 05:31:03;;;;;;;11.63;5.18;;;6.50;99.90;;;;;;5116073;28;20106;-86
2023/12/15 05:33:29;;;;;;;10.50;5.67;;;6.50;99.90;;;;;;5098071;28;20031;-85
2023/12/15 05:35:54;;;;;;;9.75;5.15;;;6.40;99.90;;;;;;5097589;28;20020;-86
2023/12/15 05:38:20;;;;;;;10.52;5.35;;;6.40;99.90;;;;;;5097902;28;20068;-86
2023/12/15 05:40:46;;;;;;;8.77;4.95;;;6.30;99.90;;;;;;5096987;28;20063;-86
2023/12/15 05:43:11;;;;;;;14.75;5.13;;;6.40;99.90;;;;;;5097789;28;20035;-86
2023/12/15 05:45:37;;;;;;;12.05;5.32;;;6.40;99.90;;;;;;5097408;28;20045;-86
2023/12/15 05:48:03;;;;;;;15.70;5.70;;;6.40;99.90;;;;;;5097865;28;20376;-86
2023/12/15 05:50:29;;;;;;;11.80;5.65;;;6.40;99.90;;;;;;5097649;28;20028;-86
2023/12/15 05:52:54;;;;;;;16.63;5.78;;;6.40;99.90;;;;;;5115391;28;20063;-86
2023/12/15 05:55:20;;;;;;;14.65;5.78;;;6.40;99.90;;;;;;5098124;28;20521;-86
2023/12/15 05:57:45;;;;;;;13.77;6.63;;;6.50;99.90;;;;;;5097088;28;20032;-87
2023/12/15 06:00:11;;;;;;;12.93;5.82;;;6.50;99.90;;;;;;5097567;28;20092;-86
2023/12/15 06:02:37;;;;;;;11.77;6.20;;;6.40;99.90;;;;;;5096897;28;20035;-86
2023/12/15 06:05:03;;;;;;;13.65;6.00;;;6.50;99.90;;;;;;5115410;28;20461;-86
2023/12/15 06:07:31;;;;;;;13.82;6.30;;;6.50;99.90;;;;;;5115289;28;20027;-86
2023/12/15 06:09:56;;;;;;;14.43;6.15;;;6.50;99.90;;;;;;5096859;28;20456;-86
2023/12/15 06:12:22;;;;;;;12.68;6.05;;;6.50;99.90;;;;;;5115122;28;20042;-86
2023/12/15 06:14:48;;;;;;;13.35;5.93;;;6.50;99.90;;;;;;5096971;28;20519;-86
2023/12/15 06:17:13;;;;;;;15.05;6.07;;;6.50;99.90;;;;;;5097637;28;20027;-85
2023/12/15 06:19:41;;;;;;;14.00;6.25;;;6.60;99.90;;;;;;5096772;28;20023;-87
2023/12/15 06:22:07;;;;;;;13.90;6.87;;;6.60;99.90;;;;;;5096993;28;20028;-87
2023/12/15 06:24:33;;;;;;;15.48;6.57;;;6.60;99.90;;;;;;5091086;28;20047;-87
2023/12/15 06:26:58;;;;;;;14.27;6.63;;;6.60;99.90;;;;;;5094318;28;20027;-86
2023/12/15 06:29:24;;;;;;;14.27;6.10;;;6.60;99.90;;;;;;5111500;28;20423;-86
2023/12/15 06:31:49;;;;;;;16.00;7.05;;;6.70;99.90;;;;;;5113572;28;20455;-81
2023/12/15 06:34:15;;;;;;;18.70;7.80;;;6.70;99.90;;;;;;5096616;28;20059;-81
2023/12/15 06:36:41;;;;;;;16.30;6.72;;;6.70;99.90;;;;;;5095642;28;20043;-82
2023/12/15 06:39:07;;;;;;;13.80;6.82;;;6.70;99.90;;;;;;5096677;28;20471;-86
2023/12/15 06:41:32;;;;;;;16.70;6.78;;;6.70;99.90;;;;;;5113966;28;20403;-87
2023/12/15 06:43:58;;;;;;;15.13;6.82;;;6.70;99.90;;;;;;5113823;28;20062;-86
2023/12/15 06:46:25;;;;;;;16.10;6.55;;;6.70;99.90;;;;;;5096484;28;20023;-87
2023/12/15 06:48:50;;;;;;;15.90;6.82;;;6.80;99.90;;;;;;5095929;28;20023;-87
2023/12/15 06:51:16;;;;;;;15.65;6.55;;;6.80;99.90;;;;;;5096443;28;20027;-87
2023/12/15 06:53:42;;;;;;;14.55;6.93;;;6.80;99.90;;;;;;5096433;28;20028;-87
2023/12/15 06:56:07;;;;;;;17.02;7.22;;;6.80;99.90;;;;;;5096828;28;20023;-87
2023/12/15 06:58:33;;;;;;;15.73;6.88;;;6.80;99.90;;;;;;5114389;28;20020;-87
2023/12/15 07:00:59;;;;;;;14.75;7.05;;;6.80;99.90;;;;;;5114236;28;20030;-87
2023/12/15 07:03:24;;;;;;;17.02;7.72;;;6.80;99.90;;;;;;5096468;28;20422;-87
2023/12/15 07:05:50;;;;;;;15.45;7.32;;;6.80;99.90;;;;;;5113911;28;20020;-87
2023/12/15 07:08:16;;;;;;;20.42;9.00;;;6.80;99.90;;;;;;5096462;28;20034;-87
2023/12/15 07:10:41;;;;;;;19.05;8.20;;;6.80;99.90;;;;;;5095804;28;20027;-86
2023/12/15 07:13:07;;;;;;;12.90;7.05;;;6.80;99.90;;;;;;5096497;28;20027;-87
2023/12/15 07:15:33;;;;;;;16.92;7.53;;;6.80;99.90;;;;;;5114254;28;20024;-87
2023/12/15 07:17:59;;;;;;;17.00;7.90;;;6.80;99.90;;;;;;5113902;28;20072;-87
2023/12/15 07:20:25;;;;;;;20.55;7.88;;;6.80;99.90;;;;;;5096337;28;20027;-87
2023/12/15 07:22:51;;;;;;;14.55;7.40;;;6.80;99.90;;;;;;5097345;28;20038;-87
2023/12/15 07:25:17;;;;;;;16.23;7.70;;;6.80;99.90;;;;;;5100627;28;20024;-87
2023/12/15 07:27:43;;;;;;;17.92;7.75;;;6.80;99.90;;;;;;5100407;28;20050;-87
2023/12/15 07:30:09;;;;;;;16.17;7.60;;;6.80;99.90;;;;;;5118469;28;20023;-87
2023/12/15 07:32:35;;;;;;;17.23;7.00;;;6.80;99.90;;;;;;5100469;28;20079;-87
2023/12/15 07:35:00;;;;;;;15.15;7.43;;;6.80;99.90;;;;;;5099826;28;20472;-87
2023/12/15 07:37:26;;;;;;;15.00;7.55;;;6.80;99.90;;;;;;5100661;28;20042;-87
2023/12/15 07:39:54;;;;;;;13.15;6.85;;;6.80;99.90;;;;;;5099459;28;20094;-87
2023/12/15 07:42:20;;;;;;;15.13;7.28;;;6.80;99.90;;;;;;5100174;28;20023;-87
2023/12/15 07:44:45;;;;;;;15.65;7.53;;;6.90;99.90;;;;;;5117709;28;20035;-87
2023/12/15 07:47:11;;;;;;;13.25;6.80;;;6.90;99.90;;;;;;5100350;28;20396;-87
2023/12/15 07:49:36;;;;;;;14.70;6.65;;;6.90;99.90;;;;;;5118243;28;20146;-87
2023/12/15 07:52:02;;;;;;;14.38;6.35;;;6.90;99.90;;;;;;5099541;28;20032;-87
2023/12/15 07:54:31;;;;;;;15.93;7.20;;;6.90;99.90;;;;;;5099574;28;20031;-86
2023/12/15 07:56:56;;;;;;;14.52;7.60;;;6.90;99.90;;;;;;5099375;28;20077;-86
2023/12/15 07:59:22;;;;;;;18.23;6.88;;;6.90;99.90;;;;;;5100063;28;20108;-86
2023/12/15 08:01:50;;;;;;;18.55;7.22;;;6.90;99.90;;;;;;5098993;28;20020;-85
2023/12/15 08:04:16;;;;;;;12.32;6.07;;;7.00;99.90;;;;;;5117903;28;20032;-86
2023/12/15 08:06:41;;;;;;;15.25;6.90;;;7.00;99.90;;;;;;5099358;28;20453;-86
2023/12/15 08:09:07;;;;;;;15.75;7.53;;;7.00;99.90;;;;;;5099948;28;20115;-86
2023/12/15 08:11:32;;;;;;;13.13;6.97;;;7.00;99.90;;;;;;5099313;28;20027;-86
2023/12/15 08:13:58;;;;;;;15.38;6.85;;;6.90;99.90;;;;;;5099343;28;20091;-86
2023/12/15 08:16:24;;;;;;;13.80;6.05;;;6.90;99.90;;;;;;5099640;28;20043;-85
2023/12/15 08:18:50;;;;;;;16.58;6.72;;;6.90;99.90;;;;;;5117083;28;20471;-86
2023/12/15 08:21:15;;;;;;;12.77;6.78;;;6.90;99.90;;;;;;5099603;28;20451;-86
2023/12/15 08:23:41;;;;;;;13.25;6.13;;;6.90;99.90;;;;;;5098975;28;20036;-86
2023/12/15 08:26:07;;;;;;;12.60;6.43;;;6.90;99.90;;;;;;5099556;28;20024;-84
2023/12/15 08:28:32;;;;;;;16.60;7.20;;;6.90;99.90;;;;;;5117440;28;20019;-83
2023/12/15 08:30:58;;;;;;;15.48;6.75;;;6.90;99.90;;;;;;5099077;28;20023;-84
2023/12/15 08:33:24;;;;;;;15.45;7.10;;;6.80;99.90;;;;;;5099574;28;20031;-84
2023/12/15 08:35:50;;;;;;;14.13;6.35;;;6.80;99.90;;;;;;5116808;28;20024;-85
2023/12/15 08:38:15;;;;;;;17.67;6.88;;;6.90;99.90;;;;;;5117301;28;20072;-84
2023/12/15 08:40:41;;;;;;;16.08;7.35;;;6.90;99.90;;;;;;5098632;28;20484;-85
2023/12/15 08:43:07;;;;;;;14.20;6.80;;;6.90;99.90;;;;;;5098947;28;20465;-84
2023/12/15 08:45:32;;;;;;;20.38;7.30;;;6.80;99.90;;;;;;5099043;28;20051;-85
2023/12/15 08:47:58;;;;;;;17.90;6.93;;;6.90;99.90;;;;;;5098512;28;20024;-84
2023/12/15 08:50:24;;;;;;;15.43;7.13;;;6.90;99.90;;;;;;5099123;28;20024;-85
2023/12/15 08:52:49;;;;;;;16.70;6.78;;;6.90;99.90;;;;;;5098601;28;20024;-83
2023/12/15 08:55:15;;;;;;;13.20;6.70;;;7.00;99.90;;;;;;5099175;28;20038;-85
2023/12/15 08:57:40;;;;;;;13.93;7.40;;;6.90;99.90;;;;;;5098932;28;20456;-85
2023/12/15 09:00:07;;;;;;;15.45;6.80;;;6.90;99.90;;;;;;5116229;28;20448;-85
2023/12/15 09:02:33;;;;;;;17.13;6.88;;;6.90;99.90;;;;;;5098149;28;20024;-85
2023/12/15 09:05:00;;;;;;;15.02;7.35;;;7.00;99.90;;;;;;5098328;28;20114;-85
2023/12/15 09:07:26;;;;;;;12.45;6.43;;;7.00;99.90;;;;;;5098401;28;20031;-84
2023/12/15 09:09:52;;;;;;;13.25;7.10;;;7.00;99.90;;;;;;5097954;28;20028;-85
2023/12/15 09:12:17;;;;;;;12.75;7.10;;;7.00;99.90;;;;;;5098617;28;20031;-85
2023/12/15 09:14:43;;;;;;;16.27;7.07;;;7.00;99.90;;;;;;5098479;28;20457;-85
2023/12/15 09:17:13;;;;;;;14.07;6.47;;;7.00;99.90;;;;;;5098645;28;20106;-85
2023/12/15 09:19:40;;;;;;;11.80;6.00;;;7.00;99.90;;;;;;5098704;28;20573;-85
2023/12/15 09:22:06;;;;;;;17.38;6.60;;;7.00;99.90;;;;;;5115991;28;20023;-85
2023/12/15 09:24:33;;;;;;;15.75;6.40;;;7.10;99.90;;;;;;5116238;28;20483;-85
2023/12/15 09:26:59;;;;;;;14.57;5.97;;;7.10;99.90;;;;;;5115698;28;20019;-86
2023/12/15 09:29:25;;;;;;;14.88;6.15;;;7.20;99.90;;;;;;5116220;28;20372;-85
2023/12/15 09:31:50;;;;;;;13.18;6.40;;;7.20;99.90;;;;;;5115676;28;20032;-85
2023/12/15 09:34:17;;;;;;;16.25;6.65;;;7.20;99.90;;;;;;5098191;28;20032;-85
2023/12/15 09:36:42;;;;;;;11.27;6.22;;;7.20;99.90;;;;;;5097918;28;20107;-85
2023/12/15 09:39:08;;;;;;;12.48;6.13;;;7.10;99.90;;;;;;5097740;28;20112;-85
2023/12/15 09:41:35;;;;;;;13.90;6.53;;;7.20;99.90;;;;;;5115732;28;20066;-85
2023/12/15 09:44:01;;;;;;;14.10;5.95;;;7.20;99.90;;;;;;5097434;28;20028;-86
2023/12/15 09:46:27;;;;;;;14.60;6.40;;;7.20;99.90;;;;;;5097313;28;20080;-85
2023/12/15 09:48:53;;;;;;;12.30;5.50;;;7.30;99.90;;;;;;5115419;28;20027;-85
2023/12/15 09:51:24;;;;;;;11.88;5.22;;;7.30;99.90;;;;;;5097678;28;20023;-85
2023/12/15 09:53:50;;;;;;;12.02;5.30;;;7.30;99.90;;;;;;5097201;28;20036;-86
2023/12/15 09:56:16;;;;;;;10.40;5.40;;;7.40;99.90;;;;;;5115847;28;20426;-85
2023/12/15 09:58:42;;;;;;;13.02;6.00;;;7.40;99.90;;;;;;5097502;28;20023;-85
2023/12/15 10:01:11;;;;;;;13.73;6.13;;;7.40;99.90;;;;;;5097181;28;20069;-85
2023/12/15 10:03:37;;;;;;;9.93;5.68;;;7.50;99.90;;;;;;5097749;28;20088;-85
2023/12/15 10:06:03;;;;;;;11.18;5.57;;;7.50;99.90;;;;;;5114980;28;20068;-85
2023/12/15 10:08:44;;;;;;;14.07;4.97;;;7.40;99.90;;;;;;5097327;28;20391;-85
2023/12/15 10:11:10;;;;;;;13.35;4.90;;;7.50;99.90;;;;;;5115127;28;20032;-85
2023/12/15 10:13:39;;;;;;;10.90;4.97;;;7.50;99.90;;;;;;5115297;28;20054;-84
2023/12/15 10:16:05;;;;;;;9.70;4.40;;;7.60;99.90;;;;;;5096953;28;20015;-84
2023/12/15 10:18:30;;;;;;;13.00;5.50;;;7.60;99.90;;;;;;5097299;28;20032;-84
2023/12/15 10:20:56;;;;;;;8.90;4.80;;;7.60;99.90;;;;;;5096721;28;20098;-84
2023/12/15 10:23:30;;;;;;;9.45;4.45;;;7.60;99.90;;;;;;5115530;28;20039;-83
2023/12/15 10:25:58;;;;;;;10.10;4.80;;;7.60;99.90;;;;;;5096862;28;20110;-84
2023/12/15 10:28:24;;;;;;;8.43;4.45;;;7.60;99.90;;;;;;5097150;28;20023;-85
2023/12/15 10:30:53;;;;;;;8.73;4.50;;;7.60;99.90;;;;;;5096360;28;20028;-85
2023/12/15 10:33:19;;;;;;;8.55;4.40;;;7.60;99.90;;;;;;5096896;28;20023;-84
2023/12/15 10:35:48;;;;;;;8.65;4.25;;;7.70;99.90;;;;;;5096928;28;20031;-86
2023/12/15 10:38:15;;;;;;;10.25;4.85;;;7.70;99.90;;;;;;5115017;28;20468;-87
2023/12/15 10:40:42;;;;;;;8.60;4.50;;;7.70;99.90;;;;;;5114777;28;20110;-86
2023/12/15 10:43:10;;;;;;;13.60;4.50;;;7.70;99.90;;;;;;5096482;28;20039;-86
2023/12/15 10:45:36;;;;;;;9.63;4.57;;;7.70;99.90;;;;;;5114346;28;20028;-86
2023/12/15 10:48:03;;;;;;;10.68;4.25;;;7.70;99.90;;;;;;5096502;28;20023;-85
2023/12/15 10:50:30;;;;;;;12.23;5.03;;;7.70;99.90;;;;;;5096955;28;20027;-85
2023/12/15 10:52:57;;;;;;;11.43;4.25;;;7.70;99.90;;;;;;5114311;28;20031;-85
2023/12/15 10:55:26;;;;;;;9.10;4.15;;;7.70;99.90;;;;;;5096631;28;20027;-85
2023/12/15 10:57:52;;;;;;;8.52;3.58;;;7.70;99.90;;;;;;5113318;28;20065;-86
2023/12/15 11:00:19;;;;;;;9.60;3.70;;;7.70;99.90;;;;;;5096550;28;20020;-85
2023/12/15 11:02:47;;;;;;;8.45;3.88;;;7.70;99.90;;;;;;5096488;28;20028;-85
2023/12/15 11:05:13;;;;;;;6.80;3.15;;;7.70;99.90;;;;;;5096055;28;20066;-85
2023/12/15 11:07:42;;;;;;;9.20;3.60;;;7.80;99.90;;;;;;5096481;28;20024;-85
2023/12/15 11:10:10;;;;;;;9.00;3.35;;;7.80;99.90;;;;;;5096095;28;20118;-85
2023/12/15 11:12:37;;;;;;;5.68;3.40;;;7.80;99.90;;;;;;5096743;28;20053;-86
2023/12/15 11:15:06;;;;;;;9.15;3.58;;;7.80;99.90;;;;;;5113932;28;20027;-86
2023/12/15 11:17:32;;;;;;;8.27;3.72;;;7.80;99.90;;;;;;5096628;28;20072;-87
2023/12/15 11:20:03;;;;;;;8.40;3.53;;;7.90;99.90;;;;;;5096293;28;20027;-86
2023/12/15 11:22:29;;;;;;;13.40;3.95;;;7.90;99.90;;;;;;5096509;28;20050;-86
2023/12/15 11:24:56;;;;;;;10.15;3.80;;;7.90;99.90;;;;;;5095801;28;20031;-87
2023/12/15 11:27:22;;;;;;;8.00;3.63;;;7.90;99.90;;;;;;5096266;28;20031;-86
2023/12/15 11:29:48;;;;;;;8.15;3.47;;;7.90;99.90;;;;;;5096182;28;20019;-86
2023/12/15 11:32:35;;;;;;;8.77;3.80;;;7.90;99.90;;;;;;5096190;28;20024;-87
2023/12/15 11:35:01;;;;;;;6.68;3.13;;;8.00;99.90;;;;;;5095796;28;20058;-86
2023/12/15 11:37:28;;;;;;;7.05;3.35;;;8.00;99.90;;;;;;5096203;28;20030;-86
2023/12/15 11:39:55;;;;;;;8.05;3.10;;;8.00;99.90;;;;;;5095268;28;20054;-87
2023/12/15 11:42:23;;;;;;;9.73;2.90;;;8.00;99.90;;;;;;5096181;28;20031;-86
2023/12/15 11:44:49;;;;;;;6.35;3.13;;;8.00;99.90;;;;;;5096068;28;20100;-86
2023/12/15 11:47:14;;;;;;;7.72;3.42;;;8.00;99.90;;;;;;5095550;28;20032;-86
2023/12/15 11:49:42;;;;;;;7.13;2.90;;;8.00;99.90;;;;;;5114184;28;20404;-86
2023/12/15 11:52:15;;;;;;;7.53;3.58;;;8.00;99.90;;;;;;5095678;28;20020;-86
2023/12/15 11:54:41;;;;;;;5.25;2.80;;;8.00;99.90;;;;;;5095963;28;20093;-86
2023/12/15 11:57:07;;;;;;;6.05;2.58;;;8.10;99.90;;;;;;5095781;28;20030;-86
2023/12/15 11:59:40;;;;;;;7.45;3.38;;;8.00;99.90;;;;;;5096238;28;20023;-85
2023/12/15 12:02:06;;;;;;;6.43;3.20;;;8.10;99.90;;;;;;5095551;28;20118;-86
2023/12/15 12:04:32;;;;;;;5.70;3.00;;;8.00;99.90;;;;;;5113958;28;20116;-86
2023/12/15 12:06:58;;;;;;;7.20;3.35;;;8.00;99.90;;;;;;5095196;28;20077;-87
2023/12/15 12:09:24;;;;;;;8.02;3.08;;;8.00;99.90;;;;;;5097937;28;20490;-86
2023/12/15 12:11:51;;;;;;;5.10;3.35;;;8.00;99.90;;;;;;5099674;28;20067;-86
2023/12/15 12:14:18;;;;;;;9.38;3.22;;;8.00;99.90;;;;;;5099063;28;20032;-86
2023/12/15 12:16:49;;;;;;;6.93;3.33;;;8.00;99.90;;;;;;5100020;28;20023;-86
2023/12/15 12:19:15;;;;;;;8.88;3.92;;;8.00;99.90;;;;;;5099218;28;20340;-86
2023/12/15 12:21:40;;;;;;;7.68;3.40;;;8.00;99.90;;;;;;5099556;28;20519;-86
2023/12/15 12:24:06;;;;;;;5.40;3.00;;;8.10;99.90;;;;;;5116920;28;20097;-84
2023/12/15 12:26:32;;;;;;;5.85;3.00;;;8.00;99.90;;;;;;5117420;28;20027;-85
2023/12/15 12:28:57;;;;;;;6.93;3.25;;;8.00;99.90;;;;;;5099085;28;20094;-86
2023/12/15 12:31:24;;;;;;;8.13;3.65;;;8.10;99.90;;;;;;5099179;28;20132;-85
2023/12/15 12:33:50;;;;;;;7.68;3.00;;;8.10;99.90;;;;;;5117385;28;20023;-85
2023/12/15 12:36:17;;;;;;;6.97;3.25;;;8.10;99.90;;;;;;5098729;28;20032;-86
2023/12/15 12:38:43;;;;;;;8.00;3.60;;;8.10;99.90;;;;;;5099391;28;20024;-85
2023/12/15 12:41:09;;;;;;;8.25;3.17;;;8.10;99.90;;;;;;5116291;28;20090;-85
2023/12/15 12:43:34;;;;;;;8.95;3.53;;;8.10;99.90;;;;;;5116988;28;20063;-85
2023/12/15 12:46:00;;;;;;;8.85;3.88;;;8.10;99.90;;;;;;5098482;28;20053;-86